Time;durP1;ratioP1;P1;durP2;ratioP2;P2;SDS_P1;SDS_P2;PMS_P1;PMS_P2;Temp;Humidity;BMP_temperature;BMP_pressure;BME280_temperature;BME280_humidity;BME280_pressure;Samples;Min_cycle;Max_cycle;Signal;HPM_P1;HPM_P2
2022/04/18 00:01:53;;;;;;;7.85;3.30;;;8.10;99.90;;;;;;5049346;28;20543;-59
2022/04/18 00:04:18;;;;;;;7.53;3.70;;;8.10;99.90;;;;;;5056383;28;20032;-63
2022/04/18 00:06:44;;;;;;;6.05;3.65;;;8.10;99.90;;;;;;5050055;28;20483;-59
2022/04/18 00:09:10;;;;;;;7.75;3.55;;;8.10;99.90;;;;;;5054189;28;20067;-61
2022/04/18 00:11:35;;;;;;;6.18;3.65;;;8.10;99.90;;;;;;5059354;28;20029;-61
2022/04/18 00:14:01;;;;;;;7.60;3.92;;;8.10;99.90;;;;;;5054138;28;20691;-62
2022/04/18 00:16:27;;;;;;;7.20;2.85;;;8.10;99.90;;;;;;5050444;28;20059;-61
2022/04/18 00:18:53;;;;;;;9.25;3.47;;;7.90;99.90;;;;;;5051398;28;20440;-58
2022/04/18 00:21:19;;;;;;;4.95;3.10;;;7.80;99.90;;;;;;5049215;28;20594;-60
2022/04/18 00:23:45;;;;;;;8.50;3.85;;;7.60;99.90;;;;;;5052456;28;20375;-60
2022/04/18 00:26:11;;;;;;;5.07;3.20;;;7.40;99.90;;;;;;5049878;28;20028;-61
2022/04/18 00:28:37;;;;;;;7.90;3.42;;;7.30;99.90;;;;;;5050812;28;20021;-61
2022/04/18 00:31:03;;;;;;;7.85;3.90;;;7.20;99.90;;;;;;5056695;28;20056;-62
2022/04/18 00:33:28;;;;;;;9.70;3.30;;;7.30;99.90;;;;;;5050661;28;20379;-61
2022/04/18 00:35:55;;;;;;;5.95;3.60;;;7.40;99.90;;;;;;5050738;28;20064;-59
2022/04/18 00:38:21;;;;;;;10.68;4.00;;;7.40;99.90;;;;;;5051145;28;20120;-60
2022/04/18 00:40:47;;;;;;;8.80;3.58;;;7.30;99.90;;;;;;5050385;28;20034;-61
2022/04/18 00:43:12;;;;;;;6.68;3.53;;;7.20;99.90;;;;;;5052690;28;20390;-61
2022/04/18 00:45:38;;;;;;;6.25;3.20;;;7.10;99.90;;;;;;5051417;28;20447;-59
2022/04/18 00:48:04;;;;;;;10.23;3.97;;;7.00;99.90;;;;;;5050332;28;20475;-61
2022/04/18 00:50:32;;;;;;;5.55;3.67;;;6.90;99.90;;;;;;5048530;28;20036;-61
2022/04/18 00:52:58;;;;;;;9.73;3.90;;;6.80;99.90;;;;;;5050798;28;20075;-61
2022/04/18 00:55:26;;;;;;;12.13;3.95;;;6.80;99.90;;;;;;5050528;28;20037;-60
2022/04/18 00:57:53;;;;;;;8.18;4.07;;;6.70;99.90;;;;;;5044524;28;20379;-59
2022/04/18 01:00:19;;;;;;;5.85;3.55;;;6.70;99.90;;;;;;5052489;28;20057;-60
2022/04/18 01:02:45;;;;;;;8.40;3.20;;;6.60;99.90;;;;;;5052690;28;20517;-59
2022/04/18 01:05:11;;;;;;;6.85;3.67;;;6.60;99.90;;;;;;5052121;28;20025;-59
2022/04/18 01:07:38;;;;;;;9.60;3.28;;;6.60;99.90;;;;;;5050630;28;20120;-60
2022/04/18 01:10:05;;;;;;;5.85;3.30;;;6.60;99.90;;;;;;5049567;28;20051;-60
2022/04/18 01:12:30;;;;;;;6.82;3.75;;;6.70;99.90;;;;;;5047717;28;20494;-61
2022/04/18 01:14:56;;;;;;;6.63;3.78;;;6.70;99.90;;;;;;5051080;28;20032;-59
2022/04/18 01:17:21;;;;;;;6.75;3.47;;;6.80;99.90;;;;;;5055165;28;20112;-60
2022/04/18 01:19:47;;;;;;;7.57;3.40;;;6.80;99.90;;;;;;5049275;28;20108;-60
2022/04/18 01:22:13;;;;;;;5.63;3.22;;;6.80;99.90;;;;;;5049743;28;20167;-56
2022/04/18 01:30:11;;;;;;;6.10;3.15;;;6.50;99.90;;;;;;5048149;28;20044;-58
2022/04/18 01:32:37;;;;;;;6.25;2.90;;;6.40;99.90;;;;;;5049676;28;20029;-60
2022/04/18 01:35:03;;;;;;;5.53;3.10;;;6.40;99.90;;;;;;5050572;28;20029;-62
2022/04/18 01:37:29;;;;;;;5.78;3.60;;;6.30;99.90;;;;;;5050336;28;20043;-61
2022/04/18 01:39:55;;;;;;;6.15;3.13;;;6.30;99.90;;;;;;5050352;28;20029;-61
2022/04/18 01:42:21;;;;;;;7.45;3.97;;;6.20;99.90;;;;;;5050433;28;20040;-61
2022/04/18 01:44:46;;;;;;;7.90;3.47;;;6.10;99.90;;;;;;5054565;28;20103;-60
2022/04/18 01:47:12;;;;;;;9.00;3.83;;;5.90;99.90;;;;;;5044465;28;20115;-62
2022/04/18 01:49:37;;;;;;;6.30;3.22;;;5.90;99.90;;;;;;5050891;28;20118;-63
2022/04/18 01:52:03;;;;;;;4.38;3.03;;;5.90;99.90;;;;;;5050730;28;20108;-61
2022/04/18 01:54:28;;;;;;;8.18;3.33;;;5.90;99.90;;;;;;5051308;28;20055;-62
2022/04/18 01:56:54;;;;;;;7.18;3.65;;;5.90;99.90;;;;;;5049462;28;20116;-61
2022/04/18 01:59:20;;;;;;;11.38;4.20;;;5.90;99.90;;;;;;5049169;28;20040;-61
2022/04/18 02:01:45;;;;;;;6.85;3.78;;;5.80;99.90;;;;;;5049946;28;20423;-61
2022/04/18 02:04:11;;;;;;;5.93;3.80;;;5.70;99.90;;;;;;5050581;28;20021;-60
2022/04/18 02:06:36;;;;;;;7.28;3.67;;;5.60;99.90;;;;;;5052148;28;20402;-61
2022/04/18 02:09:02;;;;;;;7.47;3.75;;;5.60;99.90;;;;;;5063287;28;20044;-59
2022/04/18 02:11:27;;;;;;;9.07;3.65;;;5.60;99.90;;;;;;5054378;28;20060;-60
2022/04/18 02:13:53;;;;;;;9.77;4.13;;;5.50;99.90;;;;;;5053250;28;20479;-61
2022/04/18 02:16:19;;;;;;;8.85;3.67;;;5.50;99.90;;;;;;5052343;28;20153;-61
2022/04/18 02:18:45;;;;;;;6.13;3.72;;;5.50;99.90;;;;;;5055673;28;20104;-61
2022/04/18 02:21:11;;;;;;;10.70;4.20;;;5.50;99.90;;;;;;5049709;28;20455;-62
2022/04/18 02:23:38;;;;;;;10.23;3.95;;;5.60;99.90;;;;;;5056247;28;20382;-60
2022/04/18 02:26:04;;;;;;;6.15;4.07;;;5.60;99.90;;;;;;5047444;28;20017;-63
2022/04/18 02:28:30;;;;;;;7.78;3.78;;;5.70;99.90;;;;;;5049734;28;21362;-59
2022/04/18 02:30:57;;;;;;;5.75;3.72;;;5.70;99.90;;;;;;5051489;28;20501;-62
2022/04/18 02:33:22;;;;;;;7.68;3.85;;;5.70;99.90;;;;;;5049020;28;20033;-59
2022/04/18 02:35:48;;;;;;;6.78;3.88;;;5.60;99.90;;;;;;5050983;28;20040;-61
2022/04/18 02:38:14;;;;;;;5.65;4.07;;;5.40;99.90;;;;;;5050022;28;20064;-59
2022/04/18 02:40:39;;;;;;;7.53;3.72;;;5.30;99.90;;;;;;5050980;28;20039;-59
2022/04/18 02:43:05;;;;;;;9.65;4.03;;;5.20;99.90;;;;;;5050175;28;20044;-62
2022/04/18 02:45:31;;;;;;;8.35;3.85;;;5.10;99.90;;;;;;5050116;28;20510;-59
2022/04/18 02:47:57;;;;;;;6.43;3.33;;;5.10;99.90;;;;;;5049483;28;20028;-59
2022/04/18 02:50:23;;;;;;;6.00;3.70;;;5.10;99.90;;;;;;5049827;28;20096;-59
2022/04/18 02:52:48;;;;;;;9.07;4.88;;;5.10;99.90;;;;;;5049886;28;20495;-63
2022/04/18 02:55:14;;;;;;;6.88;3.70;;;5.10;99.90;;;;;;5052362;28;20175;-61
2022/04/18 02:57:40;;;;;;;6.80;3.70;;;5.20;99.90;;;;;;5051386;28;20025;-61
2022/04/18 03:00:08;;;;;;;7.43;3.45;;;5.10;99.90;;;;;;5049894;28;20108;-59
2022/04/18 03:02:33;;;;;;;9.88;3.53;;;5.20;99.90;;;;;;5050292;28;20098;-61
2022/04/18 03:04:59;;;;;;;8.65;3.97;;;5.10;99.90;;;;;;5050584;28;20060;-60
2022/04/18 03:07:24;;;;;;;7.88;3.90;;;5.10;99.90;;;;;;5049555;28;20037;-62
2022/04/18 03:09:50;;;;;;;5.18;3.42;;;5.10;99.90;;;;;;5058184;28;20133;-63
2022/04/18 03:12:15;;;;;;;7.38;3.40;;;5.00;99.90;;;;;;5047814;28;20422;-61
2022/04/18 03:14:41;;;;;;;9.95;3.97;;;5.10;99.90;;;;;;5050231;28;20087;-62
2022/04/18 03:17:07;;;;;;;5.32;3.33;;;5.10;99.90;;;;;;5050094;28;20151;-60
2022/04/18 03:19:32;;;;;;;6.68;3.70;;;5.10;99.90;;;;;;5049780;28;20024;-61
2022/04/18 03:21:59;;;;;;;6.80;3.03;;;5.20;99.90;;;;;;5049146;28;20485;-61
2022/04/18 03:24:24;;;;;;;5.97;3.10;;;5.20;99.90;;;;;;5049834;28;20017;-60
2022/04/18 03:26:50;;;;;;;5.32;3.67;;;5.20;99.90;;;;;;5052165;28;20029;-63
2022/04/18 03:29:16;;;;;;;5.97;3.05;;;5.20;99.90;;;;;;5053846;28;20071;-59
2022/04/18 03:31:41;;;;;;;8.07;3.33;;;5.20;99.90;;;;;;5052903;28;20059;-61
2022/04/18 03:34:07;;;;;;;8.70;2.95;;;5.20;99.90;;;;;;5053645;28;20025;-62
2022/04/18 03:42:02;;;;;;;6.68;3.00;;;5.10;99.90;;;;;;5051955;28;20083;-60
2022/04/18 03:44:27;;;;;;;6.63;3.25;;;5.10;99.90;;;;;;5057868;28;20024;-61
2022/04/18 03:46:53;;;;;;;8.55;3.58;;;5.10;99.90;;;;;;5051432;28;20020;-60
2022/04/18 03:49:19;;;;;;;5.13;3.35;;;5.00;99.90;;;;;;5053108;28;20055;-61
2022/04/18 03:51:45;;;;;;;7.72;3.70;;;5.00;99.90;;;;;;5052998;28;20079;-60
2022/04/18 03:54:10;;;;;;;6.60;3.42;;;5.00;99.90;;;;;;5056322;28;20037;-60
2022/04/18 03:56:36;;;;;;;10.48;4.03;;;5.00;99.90;;;;;;5053941;28;20027;-63
2022/04/18 03:59:01;;;;;;;8.15;3.95;;;4.90;99.90;;;;;;5051978;28;20028;-60
2022/04/18 04:01:27;;;;;;;9.32;3.33;;;4.90;99.90;;;;;;5052809;28;20063;-60
2022/04/18 04:03:52;;;;;;;6.88;3.00;;;4.90;99.90;;;;;;5055445;28;20060;-62
2022/04/18 04:06:18;;;;;;;6.88;3.22;;;4.90;99.90;;;;;;5053561;28;20032;-61
2022/04/18 04:08:43;;;;;;;7.50;3.80;;;4.90;99.90;;;;;;5056170;28;20033;-59
2022/04/18 04:11:10;;;;;;;6.50;2.85;;;4.80;99.90;;;;;;5059192;28;20033;-62
2022/04/18 04:13:35;;;;;;;7.43;3.40;;;4.80;99.90;;;;;;5051880;28;20021;-60
2022/04/18 04:16:01;;;;;;;6.05;3.08;;;4.70;99.90;;;;;;5067302;28;20040;-61
2022/04/18 04:18:26;;;;;;;6.47;3.08;;;4.70;99.90;;;;;;5051733;28;20025;-60
2022/04/18 04:20:52;;;;;;;6.70;2.75;;;4.60;99.90;;;;;;5051382;28;20139;-60
2022/04/18 04:23:18;;;;;;;4.88;2.70;;;4.70;99.90;;;;;;5052878;28;20082;-63
2022/04/18 04:25:43;;;;;;;6.65;2.88;;;4.60;99.90;;;;;;5051487;28;20120;-59
2022/04/18 04:28:09;;;;;;;6.50;3.47;;;4.80;99.90;;;;;;5056910;28;20490;-59
2022/04/18 04:30:35;;;;;;;6.32;2.83;;;4.80;99.90;;;;;;5051769;28;20036;-60
2022/04/18 04:33:00;;;;;;;4.30;2.55;;;4.90;99.90;;;;;;5050569;28;20479;-62
2022/04/18 04:35:26;;;;;;;8.63;2.80;;;5.00;99.90;;;;;;5053092;28;20136;-59
2022/04/18 04:37:51;;;;;;;4.32;2.60;;;5.00;99.90;;;;;;5059564;28;20024;-62
2022/04/18 04:40:17;;;;;;;7.32;2.70;;;5.00;99.90;;;;;;5051900;28;20047;-60
2022/04/18 04:42:42;;;;;;;9.85;2.80;;;5.10;99.90;;;;;;5052121;28;20021;-61
2022/04/18 04:45:08;;;;;;;6.13;3.20;;;5.10;99.90;;;;;;5052908;28;20021;-60
2022/04/18 04:47:34;;;;;;;5.53;3.35;;;5.10;99.90;;;;;;5052583;28;20750;-62
2022/04/18 04:50:00;;;;;;;4.15;2.33;;;5.10;99.90;;;;;;5047103;28;20083;-63
2022/04/18 04:52:26;;;;;;;5.25;2.92;;;5.10;99.90;;;;;;5051455;28;20025;-60
2022/04/18 04:54:52;;;;;;;5.38;3.28;;;5.20;99.90;;;;;;5051112;28;20033;-60
2022/04/18 04:57:17;;;;;;;4.68;2.95;;;5.10;99.90;;;;;;5050260;28;20036;-59
2022/04/18 04:59:43;;;;;;;6.80;3.53;;;5.10;99.90;;;;;;5053658;28;20033;-60
2022/04/18 05:02:08;;;;;;;5.90;3.38;;;5.10;99.90;;;;;;5050597;28;20111;-58
2022/04/18 05:04:34;;;;;;;6.25;3.08;;;5.20;99.90;;;;;;5053814;28;20104;-59
2022/04/18 05:06:59;;;;;;;4.60;2.78;;;5.10;99.90;;;;;;5054771;28;20084;-60
2022/04/18 05:09:25;;;;;;;4.35;2.55;;;5.10;99.90;;;;;;5053784;28;20042;-60
2022/04/18 05:11:52;;;;;;;11.40;3.15;;;5.00;99.90;;;;;;5056967;28;20056;-60
2022/04/18 05:14:18;;;;;;;3.53;2.53;;;5.00;99.90;;;;;;5054851;28;20044;-62
2022/04/18 05:16:44;;;;;;;5.60;3.33;;;5.00;99.90;;;;;;5057347;28;20068;-62
2022/04/18 05:19:09;;;;;;;7.13;3.30;;;5.00;99.90;;;;;;5061435;28;20040;-62
2022/04/18 05:21:35;;;;;;;5.53;2.78;;;5.10;99.90;;;;;;5051187;28;20032;-60
2022/04/18 05:24:01;;;;;;;4.85;2.65;;;5.20;99.90;;;;;;5051003;28;20017;-61
2022/04/18 05:26:27;;;;;;;7.07;2.90;;;5.20;99.90;;;;;;5049960;28;20364;-60
2022/04/18 05:28:52;;;;;;;6.10;2.97;;;5.20;99.90;;;;;;5050222;28;20092;-60
2022/04/18 05:31:19;;;;;;;4.63;2.90;;;5.30;99.90;;;;;;5056483;28;20037;-61
2022/04/18 05:33:44;;;;;;;8.90;2.60;;;5.30;99.90;;;;;;5051192;28;20456;-63
2022/04/18 05:36:10;;;;;;;7.57;2.58;;;5.40;99.90;;;;;;5052709;28;20064;-62
2022/04/18 05:38:36;;;;;;;4.32;2.92;;;5.40;99.90;;;;;;5051360;28;20083;-60
2022/04/18 05:41:01;;;;;;;7.00;3.17;;;5.50;99.90;;;;;;5051217;28;20505;-61
2022/04/18 05:43:28;;;;;;;4.43;2.92;;;5.60;99.90;;;;;;5054863;28;20049;-61
2022/04/18 05:45:53;;;;;;;5.47;2.63;;;5.70;99.90;;;;;;5049084;28;20541;-62
2022/04/18 05:48:19;;;;;;;3.28;2.75;;;5.80;99.90;;;;;;5049294;28;20155;-61
2022/04/18 05:50:45;;;;;;;6.30;2.55;;;5.90;99.90;;;;;;5056806;28;20104;-60
2022/04/18 05:53:12;;;;;;;4.05;2.67;;;6.00;99.90;;;;;;5051021;28;20112;-60
2022/04/18 05:55:37;;;;;;;7.00;3.03;;;6.10;99.90;;;;;;5049360;28;20022;-60
2022/04/18 05:58:04;;;;;;;7.55;2.72;;;6.10;99.90;;;;;;5050296;28;20029;-62
2022/04/18 06:00:32;;;;;;;9.57;2.95;;;6.30;99.90;;;;;;5050758;28;20483;-60
2022/04/18 06:02:58;;;;;;;4.25;2.42;;;6.40;99.90;;;;;;5052871;28;20481;-58
2022/04/18 06:05:23;;;;;;;7.22;3.30;;;6.50;99.90;;;;;;5051870;28;20053;-61
2022/04/18 06:07:50;;;;;;;12.68;3.05;;;6.60;99.90;;;;;;5054264;28;20498;-60
2022/04/18 06:10:15;;;;;;;7.90;2.53;;;6.70;99.90;;;;;;5052422;28;20029;-58
2022/04/18 06:12:41;;;;;;;6.15;2.35;;;6.80;99.90;;;;;;5056920;28;20047;-62
2022/04/18 06:15:07;;;;;;;5.47;2.47;;;6.90;99.90;;;;;;5060177;28;20057;-60
2022/04/18 06:17:32;;;;;;;6.85;2.53;;;7.00;99.90;;;;;;5053491;28;20052;-59
2022/04/18 06:19:58;;;;;;;6.07;2.97;;;7.10;99.90;;;;;;5048313;28;20359;-63
2022/04/18 06:22:24;;;;;;;5.25;2.25;;;7.30;99.90;;;;;;5056274;28;20108;-61
2022/04/18 06:24:49;;;;;;;7.47;2.92;;;7.30;99.90;;;;;;5050477;28;20079;-61
2022/04/18 06:27:15;;;;;;;5.20;2.58;;;7.40;99.90;;;;;;5054351;28;20388;-58
2022/04/18 06:29:40;;;;;;;2.95;2.20;;;7.50;99.90;;;;;;5048024;28;20328;-62
2022/04/18 06:32:06;;;;;;;7.93;2.53;;;7.60;99.90;;;;;;5051035;28;20116;-59
2022/04/18 06:34:32;;;;;;;5.53;2.40;;;7.70;99.90;;;;;;5051261;28;20060;-61
2022/04/18 06:36:57;;;;;;;4.60;2.88;;;7.80;99.90;;;;;;5052646;28;20056;-62
2022/04/18 06:39:23;;;;;;;4.60;2.63;;;7.90;99.90;;;;;;5051367;28;20064;-62
2022/04/18 06:41:48;;;;;;;5.43;2.70;;;8.00;99.90;;;;;;5050909;28;20518;-60
2022/04/18 06:44:14;;;;;;;4.75;2.35;;;8.10;99.90;;;;;;5050583;28;20028;-60
2022/04/18 06:46:40;;;;;;;4.00;2.35;;;8.20;99.90;;;;;;5057571;28;20104;-59
2022/04/18 06:49:05;;;;;;;3.13;2.40;;;8.30;99.90;;;;;;5065535;28;20042;-61
2022/04/18 06:51:31;;;;;;;5.40;2.25;;;8.40;99.90;;;;;;5053063;28;20033;-60
2022/04/18 06:53:56;;;;;;;4.60;2.45;;;8.50;99.90;;;;;;5045190;28;20083;-62
2022/04/18 06:59:06;;;;;;;5.82;2.92;;;8.70;99.90;;;;;;5048953;28;20541;-60
2022/04/18 07:01:31;;;;;;;3.25;2.28;;;8.80;99.90;;;;;;5047212;28;20060;-60
2022/04/18 07:03:57;;;;;;;4.40;2.28;;;8.80;99.90;;;;;;5052003;28;20021;-61
2022/04/18 07:06:23;;;;;;;5.38;2.40;;;8.90;99.90;;;;;;5049842;28;20048;-61
2022/04/18 07:08:49;;;;;;;5.97;2.70;;;9.00;99.90;;;;;;5051695;28;20052;-61
2022/04/18 07:11:14;;;;;;;6.18;2.05;;;9.10;99.90;;;;;;5051269;28;20025;-60
2022/04/18 07:13:40;;;;;;;5.70;2.05;;;9.20;99.90;;;;;;5052768;28;20025;-58
2022/04/18 07:16:07;;;;;;;5.90;3.03;;;9.30;99.90;;;;;;5050225;28;20025;-60
2022/04/18 07:18:33;;;;;;;7.75;2.50;;;9.30;99.90;;;;;;5049790;28;20032;-61
2022/04/18 07:20:59;;;;;;;5.07;2.63;;;9.40;99.90;;;;;;5050540;28;20029;-58
2022/04/18 07:23:25;;;;;;;5.50;2.42;;;9.50;99.90;;;;;;5049527;28;20475;-59
2022/04/18 07:25:50;;;;;;;3.72;2.50;;;9.50;99.90;;;;;;5048184;28;20025;-58
2022/04/18 07:28:16;;;;;;;3.75;2.70;;;9.60;99.90;;;;;;5052354;28;20538;-63
2022/04/18 07:30:41;;;;;;;4.13;2.35;;;9.70;99.90;;;;;;5049502;28;20522;-61
2022/04/18 07:33:07;;;;;;;6.43;2.55;;;9.80;99.90;;;;;;5048909;28;20021;-60
2022/04/18 07:35:34;;;;;;;4.75;2.40;;;9.90;99.90;;;;;;5046694;28;20056;-62
2022/04/18 07:40:44;;;;;;;4.35;2.58;;;10.00;99.90;;;;;;5046339;28;20068;-60
2022/04/18 07:43:10;;;;;;;4.70;2.70;;;10.10;99.90;;;;;;5048221;28;20059;-59
2022/04/18 07:45:37;;;;;;;9.13;2.67;;;10.20;99.90;;;;;;5044429;28;20028;-60
2022/04/18 07:48:08;;;;;;;4.43;2.10;;;10.30;99.90;;;;;;5048996;28;20092;-58
2022/04/18 07:53:18;;;;;;;;;;;10.50;99.90;;;;;;5047156;28;20036;-60
2022/04/18 07:55:43;;;;;;;9.55;2.95;;;10.60;99.90;;;;;;5047402;28;19908;-60
2022/04/18 07:58:09;;;;;;;5.25;2.58;;;10.70;99.90;;;;;;5049310;28;20036;-64
2022/04/18 08:00:35;;;;;;;5.88;2.70;;;10.90;99.90;;;;;;5045748;28;20033;-61
2022/04/18 08:03:01;;;;;;;4.13;2.40;;;11.00;99.90;;;;;;5052398;28;20144;-63
2022/04/18 08:05:26;;;;;;;4.82;2.75;;;11.00;99.90;;;;;;5050164;28;20033;-62
2022/04/18 08:07:52;;;;;;;4.00;2.28;;;11.20;99.90;;;;;;5050933;28;20036;-61
2022/04/18 08:10:17;;;;;;;6.07;2.25;;;11.30;99.90;;;;;;5049547;28;21330;-63
2022/04/18 08:12:43;;;;;;;4.40;2.50;;;11.30;99.90;;;;;;5047436;28;20060;-63
2022/04/18 08:15:09;;;;;;;9.85;2.60;;;11.40;99.90;;;;;;5047464;28;20112;-62
2022/04/18 08:17:34;;;;;;;4.88;2.15;;;11.40;99.90;;;;;;5048477;28;20398;-61
2022/04/18 08:20:00;;;;;;;3.47;2.60;;;11.50;99.90;;;;;;5056132;28;20086;-60
2022/04/18 08:22:25;;;;;;;8.07;2.92;;;11.50;99.90;;;;;;5058709;28;20033;-61
2022/04/18 08:24:51;;;;;;;6.35;2.50;;;11.70;99.90;;;;;;5053672;28;20071;-63
2022/04/18 08:27:17;;;;;;;5.65;2.90;;;11.70;99.90;;;;;;5049143;28;20032;-57
2022/04/18 08:29:42;;;;;;;4.05;2.58;;;11.80;99.90;;;;;;5060518;28;20048;-61
2022/04/18 08:32:08;;;;;;;6.50;2.53;;;11.90;99.90;;;;;;5051734;28;20040;-60
2022/04/18 08:34:34;;;;;;;6.22;2.75;;;12.00;99.90;;;;;;5051014;28;20672;-61
2022/04/18 08:36:59;;;;;;;4.57;2.75;;;12.10;99.90;;;;;;5050211;28;20049;-62
2022/04/18 08:39:26;;;;;;;3.88;2.35;;;12.20;99.90;;;;;;5056338;28;20108;-61
2022/04/18 08:41:57;;;;;;;4.28;2.38;;;12.20;99.90;;;;;;5052446;28;20017;-61
2022/04/18 08:44:25;;;;;;;4.72;2.45;;;12.30;99.90;;;;;;5051507;28;20029;-62
2022/04/18 08:46:51;;;;;;;8.65;2.88;;;12.40;99.90;;;;;;5053778;28;20021;-63
2022/04/18 08:55:06;;;;;;;3.53;2.33;;;12.80;99.90;;;;;;4988424;28;20054;-63
2022/04/18 08:57:31;;;;;;;6.30;3.28;;;12.90;99.90;;;;;;5023295;28;20045;-60
2022/04/18 08:59:57;;;;;;;4.03;2.72;;;13.10;99.90;;;;;;5052703;28;20047;-60
2022/04/18 09:02:26;;;;;;;4.78;2.65;;;13.20;99.90;;;;;;5052400;28;20032;-61
2022/04/18 09:04:53;;;;;;;3.88;2.75;;;13.40;99.90;;;;;;5055996;28;20020;-62
2022/04/18 09:07:18;;;;;;;8.70;3.22;;;13.40;99.90;;;;;;5041625;28;20096;-63
2022/04/18 09:09:44;;;;;;;6.75;3.05;;;13.40;99.90;;;;;;5063237;28;20515;-62
2022/04/18 09:12:21;;;;;;;56.60;17.05;;;13.60;99.90;;;;;;5051995;28;20034;-60
2022/04/18 09:14:48;;;;;;;27.20;10.13;;;13.80;99.90;;;;;;5057330;28;20104;-60
2022/04/18 09:17:28;;;;;;;8.77;3.92;;;13.90;99.90;;;;;;5052357;28;20021;-59
2022/04/18 09:20:11;;;;;;;9.48;3.13;;;14.20;99.90;;;;;;5070445;28;20031;-60
2022/04/18 09:22:45;;;;;;;6.18;3.13;;;14.30;99.90;;;;;;5053516;28;20390;-61
2022/04/18 09:25:15;;;;;;;8.23;3.35;;;14.60;99.90;;;;;;5052220;28;20078;-61
2022/04/18 09:27:46;;;;;;;7.18;3.85;;;14.70;99.90;;;;;;5052867;28;20029;-57
2022/04/18 09:30:15;;;;;;;9.32;3.08;;;14.70;99.90;;;;;;5059915;28;20063;-60
2022/04/18 09:32:41;;;;;;;4.35;3.03;;;14.90;99.90;;;;;;5053345;28;20398;-60
2022/04/18 09:35:07;;;;;;;5.95;3.55;;;15.10;99.90;;;;;;5051924;28;20029;-63
2022/04/18 09:37:33;;;;;;;3.75;2.72;;;15.30;99.90;;;;;;5046404;28;20028;-62
2022/04/18 09:39:59;;;;;;;4.03;2.97;;;15.60;99.90;;;;;;5064879;28;20051;-60
2022/04/18 09:42:27;;;;;;;5.40;2.97;;;15.60;99.90;;;;;;5071076;28;20137;-60
2022/04/18 09:44:53;;;;;;;5.18;3.08;;;15.80;99.90;;;;;;5045488;28;20056;-59
2022/04/18 09:47:22;;;;;;;7.15;3.20;;;15.90;99.90;;;;;;5052077;28;20048;-61
2022/04/18 09:49:48;;;;;;;8.93;3.58;;;16.00;99.90;;;;;;5059691;28;20037;-59
2022/04/18 09:52:19;;;;;;;9.10;3.35;;;16.20;99.90;;;;;;5046642;28;20436;-58
2022/04/18 09:54:54;;;;;;;8.40;3.25;;;16.30;99.90;;;;;;5051672;28;20028;-61
2022/04/18 09:57:25;;;;;;;4.70;3.10;;;16.60;99.90;;;;;;5051720;28;20490;-62
2022/04/18 09:59:51;;;;;;;7.07;3.10;;;16.70;99.90;;;;;;5051350;28;20025;-61
2022/04/18 10:02:17;;;;;;;6.40;3.20;;;16.90;99.90;;;;;;5064416;28;20020;-61
2022/04/18 10:04:44;;;;;;;7.20;3.15;;;17.20;99.90;;;;;;5070810;28;20055;-57
2022/04/18 10:07:10;;;;;;;6.63;4.20;;;17.30;99.90;;;;;;5062261;28;20041;-58
2022/04/18 10:09:39;;;;;;;5.28;2.85;;;17.30;99.90;;;;;;5049532;28;20043;-59
2022/04/18 10:12:06;;;;;;;3.55;2.90;;;17.60;99.90;;;;;;5050910;28;20056;-55
2022/04/18 10:14:32;;;;;;;7.18;3.92;;;17.80;99.90;;;;;;5069822;28;20394;-56
2022/04/18 10:17:00;;;;;;;4.55;2.78;;;18.00;99.30;;;;;;5070842;28;20036;-61
2022/04/18 10:19:52;;;;;;;5.82;2.80;;;18.20;97.50;;;;;;5070642;28;20032;-60
2022/04/18 10:22:37;;;;;;;8.20;2.72;;;18.10;95.40;;;;;;5056798;28;20082;-61
2022/04/18 10:25:39;;;;;;;4.75;2.85;;;18.10;93.30;;;;;;5057606;28;20033;-60
2022/04/18 10:28:17;;;;;;;4.18;2.97;;;17.90;95.00;;;;;;5025352;28;20036;-61
2022/04/18 10:31:07;;;;;;;6.45;2.67;;;18.30;92.90;;;;;;5050927;28;20029;-59
2022/04/18 10:33:33;;;;;;;4.68;3.00;;;18.50;93.60;;;;;;5050426;28;20025;-60
2022/04/18 10:36:07;;;;;;;4.65;3.35;;;18.80;94.40;;;;;;5049797;28;20032;-61
2022/04/18 10:38:36;;;;;;;3.42;2.70;;;19.00;91.40;;;;;;5050910;28;20536;-59
2022/04/18 10:41:15;;;;;;;7.50;2.92;;;19.00;89.80;;;;;;5058119;28;20029;-59
2022/04/18 10:44:02;;;;;;;5.35;2.45;;;19.10;90.50;;;;;;5052644;28;20043;-63
2022/04/18 10:46:28;;;;;;;4.75;2.63;;;19.40;90.00;;;;;;5053883;28;20032;-62
2022/04/18 10:48:56;;;;;;;4.75;2.30;;;19.50;90.90;;;;;;5061350;28;20033;-59
2022/04/18 10:51:48;;;;;;;5.75;2.90;;;19.70;87.50;;;;;;5048567;28;20072;-61
2022/04/18 10:54:22;;;;;;;4.25;2.97;;;20.00;85.20;;;;;;5037418;28;20068;-64
2022/04/18 10:57:01;;;;;;;11.30;2.50;;;20.00;89.10;;;;;;5045990;28;20553;-62
2022/04/18 10:59:29;;;;;;;9.13;2.92;;;20.10;87.20;;;;;;5043217;28;20036;-61
2022/04/18 11:01:57;;;;;;;9.82;2.70;;;20.20;87.00;;;;;;5049560;28;20028;-61
2022/04/18 11:04:30;;;;;;;5.28;2.58;;;20.10;85.80;;;;;;5049889;28;20021;-62
2022/04/18 11:07:04;;;;;;;4.70;3.03;;;19.90;85.00;;;;;;5049204;28;20390;-62
2022/04/18 11:09:33;;;;;;;4.53;2.78;;;19.70;85.30;;;;;;5047068;28;20142;-63
2022/04/18 11:12:05;;;;;;;5.00;2.53;;;19.80;85.80;;;;;;5049326;28;20017;-61
2022/04/18 11:14:47;;;;;;;4.22;2.75;;;20.00;85.70;;;;;;5046462;28;20036;-63
2022/04/18 11:17:23;;;;;;;4.45;2.90;;;20.30;83.60;;;;;;5048563;28;20033;-63
2022/04/18 11:19:48;;;;;;;4.32;2.83;;;20.70;79.20;;;;;;5049625;28;20055;-62
2022/04/18 11:22:22;;;;;;;4.28;3.00;;;20.90;78.70;;;;;;5053499;28;20475;-62
2022/04/18 11:24:56;;;;;;;4.68;2.60;;;20.60;84.90;;;;;;5054588;28;20107;-63
2022/04/18 11:27:25;;;;;;;;;;;20.90;83.30;;;;;;5043234;28;20025;-62
2022/04/18 11:30:00;;;;;;;6.80;2.78;;;20.50;79.20;;;;;;5047622;28;19908;-60
2022/04/18 11:32:33;;;;;;;4.50;2.58;;;20.60;79.50;;;;;;5042861;28;20140;-62
2022/04/18 11:35:00;;;;;;;3.63;2.60;;;20.90;80.20;;;;;;5052183;28;21484;-63
2022/04/18 11:37:34;;;;;;;4.50;2.88;;;20.40;79.10;;;;;;5071315;22;20462;-61
2022/04/18 11:40:04;;;;;;;3.80;2.50;;;20.40;80.60;;;;;;5044002;28;20017;-60
2022/04/18 11:42:32;;;;;;;3.67;2.42;;;20.40;84.20;;;;;;5046527;28;20033;-61
2022/04/18 11:44:59;;;;;;;3.72;2.67;;;20.90;82.40;;;;;;5049988;28;20033;-61
2022/04/18 11:47:29;;;;;;;3.67;2.25;;;21.10;78.10;;;;;;5053311;28;20029;-61
2022/04/18 11:49:58;;;;;;;2.70;1.88;;;21.30;76.70;;;;;;5053646;28;20037;-61
2022/04/18 11:52:26;;;;;;;4.40;2.47;;;21.30;80.90;;;;;;5057372;28;20021;-61
2022/04/18 11:55:03;;;;;;;3.45;2.55;;;21.50;83.60;;;;;;5051578;28;20029;-60
2022/04/18 11:57:32;;;;;;;4.25;2.80;;;21.30;82.90;;;;;;5051800;28;20110;-61
2022/04/18 11:59:58;;;;;;;2.22;1.95;;;21.50;72.80;;;;;;5048677;28;20040;-62
2022/04/18 12:08:06;;;;;;;4.18;2.08;;;20.70;79.60;;;;;;5054515;28;20087;-61
2022/04/18 12:10:35;;;;;;;5.78;2.42;;;21.10;73.60;;;;;;5046914;28;20032;-61
2022/04/18 12:13:04;;;;;;;3.13;2.00;;;21.20;83.40;;;;;;5044072;28;20025;-61
2022/04/18 12:15:30;;;;;;;2.53;1.83;;;21.30;74.20;;;;;;5050743;28;20033;-61
2022/04/18 12:17:57;;;;;;;4.28;1.98;;;21.40;73.60;;;;;;5049103;28;20036;-61
2022/04/18 12:20:29;;;;;;;3.10;2.00;;;21.70;77.00;;;;;;5056247;28;20039;-61
2022/04/18 12:23:00;;;;;;;2.28;1.98;;;22.10;70.40;;;;;;5048321;28;20057;-61
2022/04/18 12:25:28;;;;;;;3.58;1.70;;;22.20;77.50;;;;;;5053387;28;20078;-61
2022/04/18 12:27:55;;;;;;;2.30;1.80;;;22.00;74.00;;;;;;5051429;28;20033;-61
2022/04/18 12:30:21;;;;;;;3.63;1.98;;;22.20;67.20;;;;;;5051466;28;20021;-61
2022/04/18 12:32:47;;;;;;;2.40;1.80;;;22.20;68.30;;;;;;5051142;28;20032;-60
2022/04/18 12:35:48;;;;;;;3.78;1.83;;;21.90;72.80;;;;;;5051381;28;20059;-61
2022/04/18 12:38:15;;;;;;;6.13;2.25;;;22.00;77.50;;;;;;5020674;28;20041;-61
2022/04/18 12:40:43;;;;;;;9.65;1.95;;;22.30;72.50;;;;;;5053269;28;20025;-61
2022/04/18 12:43:17;;;;;;;2.40;1.85;;;22.70;71.70;;;;;;5051557;28;20033;-61
2022/04/18 12:45:49;;;;;;;2.47;1.90;;;22.30;66.90;;;;;;5048159;28;20024;-60
2022/04/18 12:48:25;;;;;;;2.55;1.40;;;21.90;67.80;;;;;;5051601;28;20028;-61
2022/04/18 12:50:52;;;;;;;2.45;1.60;;;22.50;65.30;;;;;;5051788;28;20028;-59
2022/04/18 12:53:19;;;;;;;1.90;1.40;;;22.40;69.90;;;;;;5052071;28;20506;-59
2022/04/18 12:55:45;;;;;;;6.18;1.55;;;22.80;68.10;;;;;;5051082;28;20025;-60
2022/04/18 12:58:16;;;;;;;5.25;1.58;;;23.10;71.60;;;;;;5052111;28;20027;-60
2022/04/18 13:00:45;;;;;;;3.35;1.55;;;23.30;69.80;;;;;;5049676;28;20482;-61
2022/04/18 13:03:11;;;;;;;4.88;2.22;;;23.50;68.10;;;;;;5050106;28;20037;-60
2022/04/18 13:05:48;;;;;;;2.88;1.52;;;23.10;70.80;;;;;;5049371;28;20029;-60
2022/04/18 13:08:16;;;;;;;2.25;1.70;;;23.20;77.30;;;;;;5049024;28;20043;-60
2022/04/18 13:10:41;;;;;;;2.95;1.60;;;22.70;71.20;;;;;;5055013;28;20417;-61
2022/04/18 13:13:15;;;;;;;3.17;1.30;;;23.10;66.40;;;;;;5050555;28;20086;-61
2022/04/18 13:15:43;;;;;;;6.95;1.40;;;23.40;65.10;;;;;;5051564;28;20032;-61
2022/04/18 13:18:12;;;;;;;2.78;1.83;;;23.70;62.00;;;;;;5057886;28;20071;-60
2022/04/18 13:20:39;;;;;;;2.67;1.80;;;23.60;64.80;;;;;;5049770;28;20390;-61
2022/04/18 13:23:06;;;;;;;5.65;1.50;;;22.90;60.00;;;;;;5050708;28;20045;-60
2022/04/18 13:25:33;;;;;;;1.60;1.20;;;23.50;62.00;;;;;;5048210;28;20037;-60